Time;durP1;ratioP1;P1;durP2;ratioP2;P2;SDS_P1;SDS_P2;PMS_P1;PMS_P2;Temp;Humidity;BMP_temperature;BMP_pressure;BME280_temperature;BME280_humidity;BME280_pressure;Samples;Min_cycle;Max_cycle;Signal;HPM_P1;HPM_P2
2021/09/29 00:00:13;;;;;;;;;;;;;;;15.30;100.00;99225.75;5070007;28;19920;-62
2021/09/29 00:02:38;;;;;;;;;;;;;;;15.47;100.00;99216.25;5086907;28;19976;-62
2021/09/29 00:05:04;;;;;;;;;;;;;;;15.45;100.00;99220.66;5105723;28;19926;-62
2021/09/29 00:07:29;;;;;;;;;;;;;;;15.74;100.00;99223.66;5087238;28;19935;-62
2021/09/29 00:09:55;;;;;;;;;;;;;;;15.63;100.00;99218.94;5088849;28;19916;-62
2021/09/29 00:12:21;;;;;;;;;;;;;;;15.65;100.00;99211.09;5082093;28;19920;-62
2021/09/29 00:14:47;;;;;;;;;;;;;;;15.48;100.00;99215.31;5089152;28;19919;-62
2021/09/29 00:17:12;;;;;;;;;;;;;;;15.56;100.00;99216.72;5107551;28;20372;-62
2021/09/29 00:19:38;;;;;;;;;;;;;;;15.32;100.00;99214.38;5089517;28;20266;-63
2021/09/29 00:22:03;;;;;;;;;;;;;;;15.38;100.00;99208.91;5089175;28;20370;-62
2021/09/29 00:24:28;;;;;;;;;;;;;;;15.35;100.00;99210.81;5090167;28;19916;-62
2021/09/29 00:26:54;;;;;;;;;;;;;;;15.41;100.00;99198.38;5088401;28;20056;-62
2021/09/29 00:29:19;;;;;;;;;;;;;;;15.47;100.00;99195.50;5108010;28;19916;-62
2021/09/29 00:31:45;;;;;;;;;;;;;;;15.43;100.00;99191.34;5108628;28;20016;-62
2021/09/29 00:34:21;;;;;;;;;;;;;;;15.36;100.00;99184.78;5072159;28;19916;-62
2021/09/29 00:36:47;;;;;;;;;;;;;;;15.13;100.00;99187.66;5088324;28;19938;-62
2021/09/29 00:39:12;;;;;;;;;;;;;;;15.03;100.00;99182.91;5086726;28;19912;-62
2021/09/29 00:41:38;;;;;;;;;;;;;;;15.02;100.00;99181.22;5087334;28;19931;-62
2021/09/29 00:44:04;;;;;;;;;;;;;;;14.66;100.00;99182.94;5087309;28;19923;-62
2021/09/29 00:46:30;;;;;;;;;;;;;;;14.96;100.00;99178.94;5086876;28;19916;-62
2021/09/29 00:48:55;;;;;;;;;;;;;;;15.24;100.00;99164.63;5087973;28;19916;-62
2021/09/29 00:51:20;;;;;;;;;;;;;;;15.22;100.00;99163.88;5088170;28;19912;-62
2021/09/29 00:53:48;;;;;;;;;;;;;;;14.98;100.00;99158.94;5089792;28;20401;-63
2021/09/29 00:56:13;;;;;;;;;;;;;;;14.89;100.00;99164.53;5089490;28;20297;-63
2021/09/29 00:58:39;;;;;;;;;;;;;;;14.53;100.00;99156.69;5087429;28;19911;-63
2021/09/29 01:01:04;;;;;;;;;;;;;;;14.30;100.00;99161.19;5088942;28;19923;-62
2021/09/29 01:03:30;;;;;;;;;;;;;;;14.67;100.00;99158.72;5106554;28;20427;-63
2021/09/29 01:05:57;;;;;;;;;;;;;;;14.89;100.00;99143.81;5085526;28;19987;-63
2021/09/29 01:08:29;;;;;;;;;;;;;;;15.09;100.00;99150.63;5084882;28;19916;-62
2021/09/29 01:10:57;;;;;;;;;;;;;;;15.07;100.00;99149.88;5084153;28;19912;-63
2021/09/29 01:13:41;;;;;;;;;;;;;;;14.50;100.00;99144.72;5082079;28;19926;-63
2021/09/29 01:16:06;;;;;;;;;;;;;;;14.43;100.00;99140.72;5082499;28;19952;-61
2021/09/29 01:18:36;;;;;;;;;;;;;;;14.38;100.00;99134.94;5083104;28;20041;-63
2021/09/29 01:21:03;;;;;;;;;;;;;;;14.46;100.00;99130.25;5084857;28;19961;-62
2021/09/29 01:23:35;;;;;;;;;;;;;;;14.22;100.00;99132.19;5084358;28;20269;-63
2021/09/29 01:26:14;;;;;;;;;;;;;;;14.06;100.00;99126.84;5084982;28;19912;-63
2021/09/29 01:28:40;;;;;;;;;;;;;;;13.95;100.00;99119.53;5083472;28;19912;-63
2021/09/29 01:31:06;;;;;;;;;;;;;;;13.93;100.00;99115.34;5084550;28;20262;-63
2021/09/29 01:33:32;;;;;;;;;;;;;;;14.02;100.00;99117.53;5082165;28;20471;-63
2021/09/29 01:35:57;;;;;;;;;;;;;;;14.23;100.00;99111.41;5081570;28;19920;-62
2021/09/29 01:38:23;;;;;;;;;;;;;;;14.34;100.00;99115.25;5082821;28;20301;-62
2021/09/29 01:40:49;;;;;;;;;;;;;;;13.78;100.00;99102.16;5085559;28;20015;-62
2021/09/29 01:43:14;;;;;;;;;;;;;;;13.75;100.00;99110.06;5080345;28;20381;-63
2021/09/29 01:45:40;;;;;;;;;;;;;;;13.89;100.00;99103.44;5084634;28;19920;-63
2021/09/29 01:48:05;;;;;;;;;;;;;;;13.92;100.00;99092.97;5066000;28;19919;-63
2021/09/29 01:50:31;;;;;;;;;;;;;;;14.11;100.00;99098.97;5068595;28;19973;-63
2021/09/29 01:52:57;;;;;;;;;;;;;;;13.98;100.00;99092.66;5082657;28;20470;-62
2021/09/29 01:55:23;;;;;;;;;;;;;;;13.93;100.00;99084.28;5084473;28;19923;-62
2021/09/29 01:57:48;;;;;;;;;;;;;;;13.86;100.00;99088.03;5084362;28;20289;-62
2021/09/29 02:00:14;;;;;;;;;;;;;;;13.64;100.00;99083.81;5068320;28;19912;-62
2021/09/29 02:02:40;;;;;;;;;;;;;;;13.70;100.00;99085.28;5083216;28;19942;-62
2021/09/29 02:05:05;;;;;;;;;;;;;;;13.67;100.00;99086.25;5083081;28;19923;-63
2021/09/29 02:07:30;;;;;;;;;;;;;;;13.64;100.00;99081.22;5087524;28;19919;-62
2021/09/29 02:09:56;;;;;;;;;;;;;;;13.80;100.00;99069.28;5087266;28;20404;-62
2021/09/29 02:12:21;;;;;;;;;;;;;;;13.83;100.00;99070.06;5087632;28;20429;-63
2021/09/29 02:14:47;;;;;;;;;;;;;;;13.88;100.00;99074.13;5087190;28;19911;-63
2021/09/29 02:17:12;;;;;;;;;;;;;;;13.88;100.00;99065.53;5084408;28;19938;-63
2021/09/29 02:19:37;;;;;;;;;;;;;;;13.73;100.00;99062.72;5087072;28;19912;-63
2021/09/29 02:22:03;;;;;;;;;;;;;;;13.71;100.00;99063.69;5086025;28;20298;-62
2021/09/29 02:24:28;;;;;;;;;;;;;;;13.58;100.00;99064.19;5086372;28;19973;-63
2021/09/29 02:26:53;;;;;;;;;;;;;;;13.61;100.00;99058.06;5104008;28;19916;-62
2021/09/29 02:29:19;;;;;;;;;;;;;;;13.55;100.00;99064.34;5104008;28;19915;-62
2021/09/29 02:31:45;;;;;;;;;;;;;;;13.66;100.00;99061.31;5084762;28;20353;-63
2021/09/29 02:34:11;;;;;;;;;;;;;;;13.50;100.00;99060.25;5084888;28;19919;-62
2021/09/29 02:36:36;;;;;;;;;;;;;;;13.71;100.00;99061.09;5070903;28;19915;-62
2021/09/29 02:39:03;;;;;;;;;;;;;;;13.65;100.00;99059.59;5085979;28;19919;-62
2021/09/29 02:41:28;;;;;;;;;;;;;;;13.65;100.00;99057.03;5104124;28;19942;-62
2021/09/29 02:43:54;;;;;;;;;;;;;;;13.92;100.00;99056.72;5086661;28;20329;-62
2021/09/29 02:46:19;;;;;;;;;;;;;;;13.62;100.00;99057.16;5086354;28;19916;-63
2021/09/29 02:48:45;;;;;;;;;;;;;;;13.91;100.00;99058.47;5087927;28;19911;-63
2021/09/29 02:51:10;;;;;;;;;;;;;;;13.93;100.00;99048.03;5085392;28;19955;-62
2021/09/29 02:53:36;;;;;;;;;;;;;;;13.80;100.00;99052.94;5087088;28;19916;-62
2021/09/29 02:56:02;;;;;;;;;;;;;;;13.83;100.00;99051.94;5105329;28;19912;-63
2021/09/29 02:58:28;;;;;;;;;;;;;;;13.77;100.00;99047.88;5104607;28;19916;-62
2021/09/29 03:00:53;;;;;;;;;;;;;;;13.71;100.00;99042.97;5086637;28;20303;-62
2021/09/29 03:03:19;;;;;;;;;;;;;;;13.64;100.00;99049.31;5086422;28;19916;-63
2021/09/29 03:05:44;;;;;;;;;;;;;;;13.88;100.00;99042.22;5076181;28;19921;-62
2021/09/29 03:08:10;;;;;;;;;;;;;;;13.92;100.00;99041.19;5060591;28;19913;-61
2021/09/29 03:10:38;;;;;;;;;;;;;;;13.98;100.00;99046.06;5064565;28;19928;-62
2021/09/29 03:13:04;;;;;;;;;;;;;;;13.73;100.00;99047.19;5063178;28;19916;-63
2021/09/29 03:15:29;;;;;;;;;;;;;;;13.76;100.00;99041.03;5060677;28;19960;-62
2021/09/29 03:17:55;;;;;;;;;;;;;;;13.58;100.00;99053.03;5062241;28;20032;-63
2021/09/29 03:20:20;;;;;;;;;;;;;;;13.76;100.00;99049.63;5063586;28;20065;-63
2021/09/29 03:22:45;;;;;;;;;;;;;;;13.66;100.00;99040.59;5046283;28;19948;-63
2021/09/29 03:25:11;;;;;;;;;;;;;;;13.96;100.00;99037.56;5063121;28;20374;-62
2021/09/29 03:27:36;;;;;;;;;;;;;;;13.77;100.00;99038.34;5063009;28;19920;-63
2021/09/29 03:30:02;;;;;;;;;;;;;;;13.49;100.00;99043.06;5061962;28;19932;-63
2021/09/29 03:32:27;;;;;;;;;;;;;;;13.53;100.00;99039.44;5061319;28;19917;-62
2021/09/29 03:34:53;;;;;;;;;;;;;;;13.61;100.00;99037.34;5062976;28;19920;-61
2021/09/29 03:37:18;;;;;;;;;;;;;;;13.64;100.00;99031.19;5066001;28;19912;-62
2021/09/29 03:39:43;;;;;;;;;;;;;;;13.83;100.00;99031.25;5066883;28;19913;-63
2021/09/29 03:42:09;;;;;;;;;;;;;;;13.64;100.00;99026.88;5067381;28;20003;-63
2021/09/29 03:44:34;;;;;;;;;;;;;;;13.53;100.00;99029.09;5066525;28;20468;-63
2021/09/29 03:47:00;;;;;;;;;;;;;;;13.55;100.00;99028.13;5065043;28;20007;-62
2021/09/29 03:49:25;;;;;;;;;;;;;;;13.62;100.00;99026.09;5067148;28;20381;-63
2021/09/29 03:51:51;;;;;;;;;;;;;;;13.59;100.00;99023.63;5066638;28;19927;-62
2021/09/29 03:54:16;;;;;;;;;;;;;;;13.77;100.00;99020.22;5065505;28;19943;-63
2021/09/29 03:56:42;;;;;;;;;;;;;;;13.90;100.00;99024.88;5068034;28;19935;-62
2021/09/29 03:59:07;;;;;;;;;;;;;;;13.77;100.00;99020.22;5067070;28;20409;-62
2021/09/29 04:01:32;;;;;;;;;;;;;;;13.69;100.00;99014.56;5065980;28;19916;-62
2021/09/29 04:03:58;;;;;;;;;;;;;;;13.65;100.00;99015.63;5065494;28;19952;-62
2021/09/29 04:06:23;;;;;;;;;;;;;;;13.68;100.00;99018.06;5049452;28;20373;-63
2021/09/29 04:08:49;;;;;;;;;;;;;;;13.84;100.00;99012.19;5066782;28;20419;-63
2021/09/29 04:11:14;;;;;;;;;;;;;;;13.78;100.00;99014.16;5066379;28;19916;-63
2021/09/29 04:13:42;;;;;;;;;;;;;;;13.54;100.00;99007.47;5066405;28;20050;-63
2021/09/29 04:16:07;;;;;;;;;;;;;;;13.63;100.00;99012.25;5066632;28;19913;-63
2021/09/29 04:18:33;;;;;;;;;;;;;;;13.60;100.00;99009.81;5066714;28;19971;-63
2021/09/29 04:20:58;;;;;;;;;;;;;;;13.54;100.00;99008.31;5065242;28;19920;-63
2021/09/29 04:23:24;;;;;;;;;;;;;;;13.60;100.00;99002.03;5065974;28;19917;-63
2021/09/29 04:25:52;;;;;;;;;;;;;;;13.61;100.00;99006.28;5065904;28;19920;-62
2021/09/29 04:28:17;;;;;;;;;;;;;;;13.73;100.00;99010.09;5067098;28;19962;-63
2021/09/29 04:30:43;;;;;;;;;;;;;;;13.90;100.00;99007.59;5066140;28;19916;-63
2021/09/29 04:33:08;;;;;;;;;;;;;;;13.93;100.00;99011.78;5065170;28;19916;-63
2021/09/29 04:35:33;;;;;;;;;;;;;;;13.83;100.00;99005.34;5066184;28;19960;-63
2021/09/29 04:37:59;;;;;;;;;;;;;;;13.94;100.00;99006.53;5065964;28;20378;-63
2021/09/29 04:40:24;;;;;;;;;;;;;;;13.86;100.00;99000.03;5066449;28;19924;-63
2021/09/29 04:42:50;;;;;;;;;;;;;;;13.75;100.00;98997.91;5082496;28;20591;-63
2021/09/29 04:45:15;;;;;;;;;;;;;;;13.87;100.00;99001.72;5064643;28;19995;-63
2021/09/29 04:47:40;;;;;;;;;;;;;;;13.85;100.00;98998.38;5063671;28;19916;-63
2021/09/29 04:50:06;;;;;;;;;;;;;;;13.71;100.00;98994.66;5048596;28;20010;-63
2021/09/29 04:52:32;;;;;;;;;;;;;;;13.78;100.00;98998.63;5047800;28;19977;-63
2021/09/29 04:54:57;;;;;;;;;;;;;;;13.98;100.00;98994.28;5048227;28;19967;-64
2021/09/29 04:57:23;;;;;;;;;;;;;;;13.85;100.00;98993.19;5060373;28;20433;-64
2021/09/29 04:59:48;;;;;;;;;;;;;;;13.72;100.00;98992.88;5062918;28;19927;-63
2021/09/29 05:02:14;;;;;;;;;;;;;;;13.68;100.00;98983.56;5064072;28;19917;-63
2021/09/29 05:04:39;;;;;;;;;;;;;;;13.72;100.00;98988.53;5063478;28;19912;-64
2021/09/29 05:07:04;;;;;;;;;;;;;;;13.57;100.00;98984.03;5076884;28;19927;-63
2021/09/29 05:09:30;;;;;;;;;;;;;;;13.92;100.00;98979.06;5078568;28;19970;-63
2021/09/29 05:12:00;;;;;;;;;;;;;;;14.14;100.00;98974.56;5078587;28;19966;-63
2021/09/29 05:14:26;;;;;;;;;;;;;;;13.82;100.00;98963.06;5065682;28;19916;-64
2021/09/29 05:16:51;;;;;;;;;;;;;;;13.76;100.00;98969.38;5079525;28;19912;-63
2021/09/29 05:19:16;;;;;;;;;;;;;;;13.57;100.00;98971.09;5079724;28;19927;-63
2021/09/29 05:21:42;;;;;;;;;;;;;;;13.65;100.00;98976.78;5080813;28;19959;-63
2021/09/29 05:24:07;;;;;;;;;;;;;;;13.65;100.00;98973.38;5078147;28;19993;-64
2021/09/29 05:26:33;;;;;;;;;;;;;;;13.92;100.00;98971.28;5083670;28;19921;-63
2021/09/29 05:28:58;;;;;;;;;;;;;;;13.93;100.00;98970.34;5081575;28;19919;-63
2021/09/29 05:31:23;;;;;;;;;;;;;;;13.79;100.00;98963.22;5069189;28;20440;-63
2021/09/29 05:33:49;;;;;;;;;;;;;;;13.50;100.00;98961.94;5085486;28;19938;-63
2021/09/29 05:36:14;;;;;;;;;;;;;;;13.79;100.00;98958.06;5065796;28;20329;-63
2021/09/29 05:38:40;;;;;;;;;;;;;;;13.62;100.00;98958.00;5082984;28;19924;-64
2021/09/29 05:41:07;;;;;;;;;;;;;;;13.59;100.00;98962.41;5081345;28;19939;-63
2021/09/29 05:43:32;;;;;;;;;;;;;;;13.65;100.00;98968.19;5079600;28;19916;-63
2021/09/29 05:45:58;;;;;;;;;;;;;;;13.84;100.00;98963.00;5075075;28;19923;-63
2021/09/29 05:48:23;;;;;;;;;;;;;;;13.84;100.00;98968.19;5072713;28;19920;-63
2021/09/29 05:50:49;;;;;;;;;;;;;;;13.87;100.00;98961.13;5076786;28;19912;-63
2021/09/29 05:53:15;;;;;;;;;;;;;;;13.51;100.00;98963.66;5085453;28;19916;-63
2021/09/29 05:55:40;;;;;;;;;;;;;;;13.60;100.00;98960.66;5077726;28;20270;-63
2021/09/29 05:58:06;;;;;;;;;;;;;;;13.54;100.00;98959.16;5077130;28;20111;-63
2021/09/29 06:00:31;;;;;;;;;;;;;;;13.76;100.00;98945.25;5081062;28;19916;-64
2021/09/29 06:02:57;;;;;;;;;;;;;;;13.64;100.00;98954.44;5079512;28;19924;-63
2021/09/29 06:05:22;;;;;;;;;;;;;;;13.37;100.00;98941.81;5080839;28;19916;-63
2021/09/29 06:07:48;;;;;;;;;;;;;;;13.32;100.00;98948.94;5084290;28;19915;-63
2021/09/29 06:10:14;;;;;;;;;;;;;;;13.37;100.00;98946.97;5076486;28;19912;-63
2021/09/29 06:12:39;;;;;;;;;;;;;;;13.44;100.00;98957.06;5081516;28;20096;-64
2021/09/29 06:15:05;;;;;;;;;;;;;;;13.02;100.00;98960.56;5078934;28;20026;-63
2021/09/29 06:17:42;;;;;;;;;;;;;;;13.36;100.00;98953.09;5095338;28;19926;-63
2021/09/29 06:20:07;;;;;;;;;;;;;;;13.53;100.00;98951.47;5086024;28;20007;-64
2021/09/29 06:22:33;;;;;;;;;;;;;;;13.49;100.00;98952.53;5073290;28;20011;-63
2021/09/29 06:24:58;;;;;;;;;;;;;;;13.34;100.00;98951.44;5082506;28;20278;-64
2021/09/29 06:27:24;;;;;;;;;;;;;;;13.66;100.00;98947.44;5078945;28;19915;-63
2021/09/29 06:29:49;;;;;;;;;;;;;;;13.58;100.00;98939.16;5069922;28;19973;-64
2021/09/29 06:32:15;;;;;;;;;;;;;;;13.84;100.00;98940.56;5074738;28;19969;-64
2021/09/29 06:34:40;;;;;;;;;;;;;;;13.79;100.00;98947.69;5079983;28;19942;-63
2021/09/29 06:37:06;;;;;;;;;;;;;;;13.81;100.00;98938.94;5081444;28;19912;-63
2021/09/29 06:39:31;;;;;;;;;;;;;;;13.81;100.00;98938.13;5084185;28;19920;-64
2021/09/29 06:42:05;;;;;;;;;;;;;;;13.95;100.00;98938.31;5076266;28;19919;-64
2021/09/29 06:44:31;;;;;;;;;;;;;;;13.79;100.00;98938.19;5100440;28;20369;-64
2021/09/29 06:46:57;;;;;;;;;;;;;;;13.82;100.00;98932.00;5099201;28;19916;-63
2021/09/29 06:49:22;;;;;;;;;;;;;;;13.93;100.00;98937.53;5098553;28;19919;-63
2021/09/29 06:51:47;;;;;;;;;;;;;;;13.97;100.00;98935.66;5098493;28;19950;-64
2021/09/29 06:54:13;;;;;;;;;;;;;;;14.16;100.00;98935.63;5080767;28;20296;-64
2021/09/29 06:56:38;;;;;;;;;;;;;;;14.22;100.00;98928.38;5097842;28;19916;-63
2021/09/29 06:59:03;;;;;;;;;;;;;;;14.37;100.00;98928.59;5099195;28;21044;-63
2021/09/29 07:01:29;;;;;;;;;;;;;;;14.09;100.00;98919.53;5099350;28;19916;-63
2021/09/29 07:03:54;;;;;;;;;;;;;;;14.12;100.00;98924.59;5098678;28;20007;-63
2021/09/29 07:06:19;;;;;;;;;;;;;;;13.93;100.00;98923.75;5101086;28;19959;-63
2021/09/29 07:08:46;;;;;;;;;;;;;;;14.05;100.00;98928.38;5098552;28;19927;-64
2021/09/29 07:11:12;;;;;;;;;;;;;;;13.78;100.00;98928.75;5098709;28;19916;-63
2021/09/29 07:13:38;;;;;;;;;;;;;;;13.82;100.00;98921.66;5102679;28;19923;-63
2021/09/29 07:16:03;;;;;;;;;;;;;;;14.01;100.00;98916.47;5104622;28;20006;-63
2021/09/29 07:18:38;;;;;;;;;;;;;;;14.09;100.00;98922.13;5102581;27;19916;-63
2021/09/29 07:21:03;;;;;;;;;;;;;;;14.25;100.00;98919.63;5103526;28;19968;-64
2021/09/29 07:23:30;;;;;;;;;;;;;;;14.50;100.00;98919.28;5102513;28;20368;-63
2021/09/29 07:25:55;;;;;;;;;;;;;;;14.82;100.00;98919.44;5100958;28;19924;-63
2021/09/29 07:28:21;;;;;;;;;;;;;;;14.70;100.00;98912.31;5104995;28;19968;-64
2021/09/29 07:30:46;;;;;;;;;;;;;;;14.77;100.00;98911.91;5085421;28;20392;-64
2021/09/29 07:33:12;;;;;;;;;;;;;;;15.09;100.00;98916.38;5104634;28;19912;-63
2021/09/29 07:35:39;;;;;;;;;;;;;;;15.35;100.00;98915.00;5086013;28;19935;-63
2021/09/29 07:38:05;;;;;;;;;;;;;;;15.32;100.00;98913.41;5103631;28;20653;-63
2021/09/29 07:40:30;;;;;;;;;;;;;;;15.15;100.00;98905.69;5102770;28;19916;-63
2021/09/29 07:42:56;;;;;;;;;;;;;;;15.14;100.00;98916.97;5104240;28;19995;-63
2021/09/29 07:45:21;;;;;;;;;;;;;;;15.45;100.00;98911.84;5102900;28;19913;-63
2021/09/29 07:47:47;;;;;;;;;;;;;;;15.78;100.00;98905.78;5103887;28;19959;-63
2021/09/29 07:50:15;;;;;;;;;;;;;;;16.01;100.00;98911.44;5085290;28;20012;-63
2021/09/29 07:52:41;;;;;;;;;;;;;;;15.96;100.00;98905.69;5104278;28;19967;-63
2021/09/29 07:55:06;;;;;;;;;;;;;;;16.07;100.00;98906.75;5102860;28;20015;-63
2021/09/29 07:57:32;;;;;;;;;;;;;;;16.54;100.00;98909.34;5103399;28;19916;-64
2021/09/29 07:59:57;;;;;;;;;;;;;;;16.13;100.00;98899.56;5103240;28;19926;-64
2021/09/29 08:02:23;;;;;;;;;;;;;;;16.23;100.00;98896.31;5102037;28;19926;-64
2021/09/29 08:04:48;;;;;;;;;;;;;;;16.00;100.00;98904.59;5103958;28;20494;-64
2021/09/29 08:07:14;;;;;;;;;;;;;;;16.14;100.00;98899.44;5081433;28;19969;-63
2021/09/29 08:09:40;;;;;;;;;;;;;;;16.15;100.00;98903.75;5081562;28;19912;-63
2021/09/29 08:12:05;;;;;;;;;;;;;;;16.21;100.00;98895.56;5082171;28;20377;-63
2021/09/29 08:14:32;;;;;;;;;;;;;;;16.27;100.00;98908.22;5082470;28;19916;-63
2021/09/29 08:16:58;;;;;;;;;;;;;;;16.57;100.00;98904.78;5077718;28;19971;-64
2021/09/29 08:19:23;;;;;;;;;;;;;;;16.18;100.00;98913.13;5081265;28;20404;-63
2021/09/29 08:21:49;;;;;;;;;;;;;;;16.36;100.00;98911.25;5080283;28;19916;-63
2021/09/29 08:24:24;;;;;;;;;;;;;;;16.63;100.00;98909.63;5079828;28;19919;-63
2021/09/29 08:29:36;;;;;;;;;;;;;;;16.31;100.00;98906.31;5081380;28;19927;-63
2021/09/29 08:39:57;;;;;;;;;;;;;;;16.25;100.00;98891.88;5082093;28;20349;-64
2021/09/29 08:42:44;;;;;;;;;;;;;;;16.59;100.00;98886.50;5080134;28;19973;-63
2021/09/29 08:45:19;;;;;;;;;;;;;;;16.83;100.00;98881.63;5081354;28;20374;-64
2021/09/29 08:47:52;;;;;;;;;;;;;;;16.58;100.00;98870.09;5063131;28;20420;-63
2021/09/29 09:16:44;;;;;;;;;;;;;;;16.27;100.00;98873.63;5102882;28;19926;-63
2021/09/29 09:19:10;;;;;;;;;;;;;;;16.27;100.00;98871.00;5100685;28;19958;-63
2021/09/29 09:21:38;;;;;;;;;;;;;;;16.68;100.00;98868.59;5102438;28;19967;-63
2021/09/29 09:24:17;;;;;;;;;;;;;;;16.58;100.00;98871.81;5100730;28;20292;-63
2021/09/29 09:26:43;;;;;;;;;;;;;;;16.63;100.00;98872.41;5101149;28;20297;-64
2021/09/29 09:29:09;;;;;;;;;;;;;;;16.76;100.00;98864.69;5100279;28;19926;-63
2021/09/29 09:31:35;;;;;;;;;;;;;;;16.71;100.00;98868.41;5101721;28;19994;-63
2021/09/29 09:34:01;;;;;;;;;;;;;;;16.66;100.00;98854.84;5101287;28;20010;-64
2021/09/29 09:36:31;;;;;;;;;;;;;;;16.46;100.00;98860.38;5099198;28;19916;-63
2021/09/29 09:38:57;;;;;;;;;;;;;;;16.31;100.00;98856.94;5099201;28;19916;-62
2021/09/29 09:41:24;;;;;;;;;;;;;;;16.59;100.00;98856.13;5101325;28;20290;-63
2021/09/29 09:43:56;;;;;;;;;;;;;;;16.31;100.00;98857.75;5100032;28;20374;-64
2021/09/29 09:46:22;;;;;;;;;;;;;;;16.51;100.00;98854.00;5082786;28;19975;-63
2021/09/29 09:49:08;;;;;;;;;;;;;;;16.40;100.00;98855.53;5102064;28;20299;-63
2021/09/29 09:51:45;;;;;;;;;;;;;;;16.14;100.00;98854.44;5101761;28;19971;-63
2021/09/29 09:54:11;;;;;;;;;;;;;;;16.70;100.00;98832.94;5065061;28;19923;-64
2021/09/29 09:56:37;;;;;;;;;;;;;;;16.11;100.00;98842.47;5099090;28;19923;-64
2021/09/29 09:59:06;;;;;;;;;;;;;;;16.15;100.00;98841.38;5098660;28;19915;-64
2021/09/29 10:01:31;;;;;;;;;;;;;;;16.10;100.00;98839.06;5099949;28;19934;-63
2021/09/29 10:04:06;;;;;;;;;;;;;;;16.14;100.00;98836.25;5100653;28;19923;-63
2021/09/29 10:06:32;;;;;;;;;;;;;;;16.18;100.00;98840.38;5081410;28;20064;-64
2021/09/29 10:09:01;;;;;;;;;;;;;;;16.28;100.00;98834.56;5098611;28;19998;-63
2021/09/29 10:11:30;;;;;;;;;;;;;;;16.53;100.00;98830.50;5083269;28;20266;-63
2021/09/29 10:27:53;;;;;;;;;;;;;;;16.93;100.00;98830.75;5100359;28;20008;-64
2021/09/29 10:30:30;;;;;;;;;;;;;;;17.04;100.00;98825.72;5099698;28;19912;-63
2021/09/29 10:32:59;;;;;;;;;;;;;;;17.21;100.00;98823.84;5098539;28;20034;-64
2021/09/29 10:35:42;;;;;;;;;;;;;;;17.30;100.00;98815.47;5081701;28;19965;-64
2021/09/29 10:43:18;;;;;;;;;;;;;;;17.73;100.00;98812.75;5099106;28;19921;-62
2021/09/29 10:46:21;;;;;;;;;;;;;;;17.54;100.00;98808.72;5075813;28;19920;-63
2021/09/29 11:08:02;;;;;;;;;;;;;;;16.18;100.00;98833.41;5065336;28;19931;-63
2021/09/29 11:30:25;;;;;;;;;;;;;;;15.19;100.00;98908.03;5086701;28;19923;-65
2021/09/29 11:33:04;;;;;;;;;;;;;;;15.03;100.00;98912.34;5097534;28;20572;-64
2021/09/29 12:08:50;;;;;;;;;;;;;;;14.74;100.00;98921.59;5100662;28;20933;-64
2021/09/29 12:11:19;;;;;;;;;;;;;;;14.79;100.00;98906.66;5097552;28;19942;-65
2021/09/29 12:13:55;;;;;;;;;;;;;;;14.96;100.00;98909.22;5089361;27;20884;-64
2021/09/29 12:16:36;;;;;;;;;;;;;;;14.62;100.00;98923.91;5083958;28;19920;-63
2021/09/29 12:19:06;;;;;;;;;;;;;;;14.72;100.00;98915.66;5100769;28;19911;-64
2021/09/29 12:21:34;;;;;;;;;;;;;;;14.96;100.00;98921.34;5102315;28;19984;-64
2021/09/29 12:23:59;;;;;;;;;;;;;;;15.12;100.00;98916.19;5100499;28;19959;-63
2021/09/29 12:26:28;;;;;;;;;;;;;;;15.21;100.00;98918.31;5098665;28;19955;-63
2021/09/29 12:29:13;;;;;;;;;;;;;;;14.33;100.00;98920.09;5083296;28;19970;-63
2021/09/29 12:34:32;;;;;;;;;;;;;;;14.62;100.00;98939.44;5097258;28;19926;-64
2021/09/29 12:37:10;;;;;;;;;;;;;;;14.39;100.00;98947.47;5082609;28;19976;-64
2021/09/29 12:39:37;;;;;;;;;;;;;;;15.13;100.00;98947.25;5102776;28;19920;-63
2021/09/29 12:42:03;;;;;;;;;;;;;;;15.72;100.00;98952.84;5098341;28;19934;-63
2021/09/29 12:44:28;;;;;;;;;;;;;;;15.36;100.00;98955.59;5081052;28;19919;-63
2021/09/29 12:47:07;;;;;;;;;;;;;;;15.39;100.00;98956.25;5100623;28;19927;-63
2021/09/29 12:49:32;;;;;;;;;;;;;;;15.55;100.00;98945.09;5101026;28;20305;-63
2021/09/29 12:52:10;;;;;;;;;;;;;;;16.18;100.00;98952.09;5100358;28;19916;-63
2021/09/29 12:54:39;;;;;;;;;;;;;;;17.16;100.00;98949.03;5073209;28;19980;-63
2021/09/29 12:57:04;;;;;;;;;;;;;;;16.39;100.00;98939.63;5096868;28;19915;-63
2021/09/29 12:59:29;;;;;;;;;;;;;;;16.55;100.00;98948.22;5096203;28;20490;-63
2021/09/29 13:01:55;;;;;;;;;;;;;;;16.75;100.00;98954.06;5098199;28;19924;-63
2021/09/29 13:04:22;;;;;;;;;;;;;;;14.66;100.00;98954.84;5097895;28;19916;-63
2021/09/29 13:06:47;;;;;;;;;;;;;;;15.53;100.00;98962.50;5081414;28;19967;-63
2021/09/29 13:09:13;;;;;;;;;;;;;;;15.21;100.00;98983.16;5098449;28;20000;-63
2021/09/29 13:11:38;;;;;;;;;;;;;;;14.09;100.00;99002.41;5097301;28;19915;-63
2021/09/29 13:14:03;;;;;;;;;;;;;;;11.89;100.00;99051.97;5060492;28;19926;-64
2021/09/29 13:16:29;;;;;;;;;;;;;;;12.58;100.00;99027.84;5094045;28;19924;-64
2021/09/29 13:19:02;;;;;;;;;;;;;;;13.19;100.00;99009.81;5094564;28;20440;-64
2021/09/29 13:21:36;;;;;;;;;;;;;;;13.10;100.00;99005.03;5096348;28;19927;-64
2021/09/29 13:37:30;;;;;;;;;;;;;;;13.51;100.00;99041.25;5098143;28;20296;-64
2021/09/29 13:39:55;;;;;;;;;;;;;;;14.40;100.00;99029.47;5096222;28;19920;-64
2021/09/29 13:42:21;;;;;;;;;;;;;;;14.29;100.00;99039.50;5097211;28;19981;-64
2021/09/29 13:44:46;;;;;;;;;;;;;;;13.90;100.00;99043.00;5089175;28;20277;-64
2021/09/29 13:47:11;;;;;;;;;;;;;;;14.37;100.00;99043.41;5097404;28;19915;-64
2021/09/29 13:49:37;;;;;;;;;;;;;;;14.97;100.00;99050.94;5094853;28;19920;-64
2021/09/29 13:52:04;;;;;;;;;;;;;;;14.05;100.00;99047.50;5097188;28;19922;-64
2021/09/29 13:54:29;;;;;;;;;;;;;;;14.56;100.00;99045.16;5097517;28;19974;-64
2021/09/29 14:29:32;;;;;;;;;;;;;;;11.06;100.00;99217.19;5090327;28;19945;-64
2021/09/29 14:34:23;;;;;;;;;;;;;;;12.63;100.00;99181.78;5096003;28;19919;-64
2021/09/29 14:36:49;;;;;;;;;;;;;;;13.43;100.00;99151.97;5097227;28;19926;-64
2021/09/29 14:39:14;;;;;;;;;;;;;;;12.79;100.00;99124.34;5094115;28;19916;-64
2021/09/29 14:41:40;;;;;;;;;;;;;;;12.10;100.00;99131.19;5062470;28;20369;-64
2021/09/29 14:44:05;;;;;;;;;;;;;;;12.13;100.00;99162.09;5095116;28;19916;-64
2021/09/29 14:46:31;;;;;;;;;;;;;;;12.60;100.00;99162.97;5096280;28;19966;-64
2021/09/29 14:48:56;;;;;;;;;;;;;;;13.83;100.00;99152.91;5096380;28;20383;-64
2021/09/29 14:51:21;;;;;;;;;;;;;;;13.71;100.00;99155.09;5077198;28;19916;-64
2021/09/29 14:53:51;;;;;;;;;;;;;;;14.30;100.00;99165.50;5079560;28;21003;-64
2021/09/29 14:56:18;;;;;;;;;;;;;;;13.89;100.00;99165.56;5080979;28;19998;-64
2021/09/29 14:58:43;;;;;;;;;;;;;;;13.68;100.00;99168.16;5098959;28;19920;-63
2021/09/29 15:01:09;;;;;;;;;;;;;;;13.53;100.00;99166.22;5099529;28;19980;-64
2021/09/29 15:03:36;;;;;;;;;;;;;;;13.85;100.00;99171.81;5079266;28;19969;-64
2021/09/29 15:06:03;;;;;;;;;;;;;;;13.84;100.00;99167.50;5099970;28;19926;-64
2021/09/29 15:08:31;;;;;;;;;;;;;;;14.00;100.00;99165.94;5100944;28;19920;-61
2021/09/29 15:10:56;;;;;;;;;;;;;;;13.99;100.00;99161.69;5096860;28;19946;-64
2021/09/29 15:13:27;;;;;;;;;;;;;;;13.10;100.00;99166.19;5074853;28;20463;-63
2021/09/29 15:15:58;;;;;;;;;;;;;;;13.71;100.00;99167.22;5091221;28;19995;-64
2021/09/29 15:18:30;;;;;;;;;;;;;;;13.35;100.00;99166.06;5097150;28;20360;-64
2021/09/29 15:52:48;;;;;;;;;;;;;;;12.98;100.00;99197.69;5084394;28;20002;-63
2021/09/29 15:55:27;;;;;;;;;;;;;;;13.62;100.00;99194.31;5100682;28;19916;-63
2021/09/29 16:00:50;;;;;;;;;;;;;;;13.31;100.00;99185.19;5099167;28;19918;-63
2021/09/29 16:03:32;;;;;;;;;;;;;;;13.21;100.00;99186.44;5098543;28;19916;-63
2021/09/29 16:08:55;;;;;;;;;;;;;;;13.28;100.00;99200.03;5100788;28;20060;-63
2021/09/29 16:14:12;;;;;;;;;;;;;;;13.07;100.00;99199.06;5100564;28;20281;-63